createdAt,value
2019-02-24T00:00:08.489Z,2.30
2019-02-24T00:02:35.108Z,2.95
2019-02-24T00:05:03.057Z,3.08
2019-02-24T00:07:29.407Z,2.40
2019-02-24T00:09:56.129Z,1.55
2019-02-24T00:12:22.784Z,2.17
2019-02-24T00:14:49.504Z,1.92
2019-02-24T00:17:16.020Z,2.20
2019-02-24T00:19:42.790Z,2.20
2019-02-24T00:22:09.318Z,3.15
2019-02-24T00:24:35.957Z,2.55
2019-02-24T00:27:02.600Z,2.33
2019-02-24T00:29:29.334Z,2.55
2019-02-24T00:31:55.962Z,1.50
2019-02-24T00:34:22.616Z,2.58
2019-02-24T00:36:49.069Z,2.58
2019-02-24T00:39:15.792Z,3.05
2019-02-24T00:41:42.507Z,2.40
2019-02-24T00:44:09.170Z,2.45
2019-02-24T00:46:35.803Z,1.62
2019-02-24T00:49:02.324Z,3.22
2019-02-24T00:51:28.944Z,3.10
2019-02-24T00:53:55.364Z,4.50
2019-02-24T00:56:21.763Z,3.52
2019-02-24T00:58:48.397Z,3.80
2019-02-24T01:01:15.008Z,3.17
2019-02-24T01:03:41.422Z,3.65
2019-02-24T01:06:07.755Z,2.67
2019-02-24T01:08:34.074Z,1.90
2019-02-24T01:11:00.598Z,1.82
2019-02-24T01:13:27.072Z,1.17
2019-02-24T01:15:53.735Z,1.52
2019-02-24T01:18:20.584Z,1.90
2019-02-24T01:20:47.423Z,1.67
2019-02-24T01:23:14.063Z,1.98
2019-02-24T01:25:40.808Z,2.62
2019-02-24T01:28:07.544Z,2.60
2019-02-24T01:30:34.076Z,2.90
2019-02-24T01:33:00.375Z,2.95
2019-02-24T01:35:26.726Z,1.87
2019-02-24T01:37:53.392Z,2.90
2019-02-24T01:40:20.232Z,2.20
2019-02-24T01:42:46.587Z,2.55
2019-02-24T01:45:13.209Z,2.10
2019-02-24T01:47:39.842Z,3.20
2019-02-24T01:50:07.373Z,2.20
2019-02-24T01:52:33.674Z,2.42
2019-02-24T01:55:00.016Z,1.90
2019-02-24T01:57:26.707Z,1.95
2019-02-24T01:59:53.339Z,2.37
2019-02-24T02:02:19.956Z,3.00
2019-02-24T02:04:46.726Z,1.75
2019-02-24T02:07:13.040Z,1.62
2019-02-24T02:09:39.443Z,1.70
2019-02-24T02:12:06.222Z,1.20
2019-02-24T02:14:32.966Z,2.08
2019-02-24T02:16:59.276Z,1.62
2019-02-24T02:19:25.620Z,1.90
2019-02-24T02:21:52.250Z,3.00
2019-02-24T02:24:18.662Z,1.77
2019-02-24T02:26:45.350Z,1.90
2019-02-24T02:29:11.755Z,1.30
2019-02-24T02:31:38.522Z,1.80
2019-02-24T02:34:05.367Z,2.30
2019-02-24T02:36:32.002Z,3.10
2019-02-24T02:38:58.844Z,2.45
2019-02-24T02:41:25.794Z,2.52
2019-02-24T02:43:52.445Z,2.80
2019-02-24T02:46:19.077Z,4.17
2019-02-24T02:48:45.715Z,3.00
2019-02-24T02:51:12.220Z,1.80
2019-02-24T02:53:38.528Z,1.82
2019-02-24T02:56:05.226Z,2.50
2019-02-24T02:58:31.524Z,2.92
2019-02-24T03:00:58.500Z,1.85
2019-02-24T03:03:24.845Z,3.22
2019-02-24T03:05:56.073Z,2.33
2019-02-24T03:08:24.292Z,1.77
2019-02-24T03:10:50.997Z,1.45
2019-02-24T03:13:17.732Z,2.95
2019-02-24T03:15:44.150Z,1.80
2019-02-24T03:18:10.499Z,2.45
2019-02-24T03:20:37.113Z,3.02
2019-02-24T03:23:03.876Z,2.20
2019-02-24T03:25:30.517Z,2.35
2019-02-24T03:27:56.948Z,2.42
2019-02-24T03:30:23.670Z,1.57
2019-02-24T03:32:50.337Z,1.72
2019-02-24T03:35:16.639Z,1.57
2019-02-24T03:37:43.300Z,1.35
2019-02-24T03:40:09.940Z,2.62
2019-02-24T03:42:36.590Z,2.33
2019-02-24T03:45:06.369Z,2.70
2019-02-24T03:47:33.032Z,2.62
2019-02-24T03:49:59.667Z,1.77
2019-02-24T03:52:25.985Z,2.25
2019-02-24T03:54:52.709Z,1.90
2019-02-24T03:57:19.378Z,2.00
2019-02-24T03:59:45.692Z,1.95
2019-02-24T04:02:12.555Z,2.62
2019-02-24T04:04:39.291Z,2.30
2019-02-24T04:07:05.816Z,1.95
2019-02-24T04:09:32.473Z,2.70
2019-02-24T04:11:59.415Z,1.42
2019-02-24T04:14:26.164Z,2.75
2019-02-24T04:16:52.905Z,2.42
2019-02-24T04:19:19.543Z,3.85
2019-02-24T04:21:46.392Z,2.33
2019-02-24T04:24:13.028Z,1.62
2019-02-24T04:26:39.788Z,2.70
2019-02-24T04:29:06.093Z,2.52
2019-02-24T04:31:32.840Z,1.77
2019-02-24T04:33:59.481Z,2.10
2019-02-24T04:36:26.117Z,2.70
2019-02-24T04:38:52.459Z,1.72
2019-02-24T04:41:19.291Z,2.17
2019-02-24T04:43:45.590Z,2.50
2019-02-24T04:46:12.255Z,1.95
2019-02-24T04:48:38.688Z,2.65
2019-02-24T04:51:05.116Z,2.35
2019-02-24T04:53:31.447Z,2.75
2019-02-24T04:55:58.101Z,2.50
2019-02-24T04:58:24.471Z,1.50
2019-02-24T05:00:51.279Z,1.15
2019-02-24T05:03:17.911Z,2.62
2019-02-24T05:05:44.223Z,1.80
2019-02-24T05:08:10.889Z,1.57
2019-02-24T05:10:37.624Z,1.82
2019-02-24T05:13:03.979Z,1.67
2019-02-24T05:15:30.336Z,3.83
2019-02-24T05:17:56.656Z,1.92
2019-02-24T05:20:23.568Z,2.70
2019-02-24T05:22:49.919Z,1.37
2019-02-24T05:25:16.537Z,1.45
2019-02-24T05:27:42.955Z,1.30
2019-02-24T05:30:09.531Z,1.52
2019-02-24T05:32:37.268Z,1.32
2019-02-24T05:35:04.063Z,2.35
2019-02-24T05:37:30.764Z,1.42
2019-02-24T05:39:57.396Z,1.87
2019-02-24T05:42:24.344Z,1.52
2019-02-24T05:44:50.684Z,1.45
2019-02-24T05:47:17.317Z,1.37
2019-02-24T05:49:43.614Z,1.00
2019-02-24T05:52:10.385Z,1.35
2019-02-24T05:54:37.125Z,1.72
2019-02-24T05:57:03.770Z,1.15
2019-02-24T05:59:30.506Z,2.42
2019-02-24T06:01:57.556Z,1.37
2019-02-24T06:04:23.857Z,1.98
2019-02-24T06:06:50.525Z,1.77
2019-02-24T06:09:16.950Z,1.70
2019-02-24T06:11:43.808Z,1.87
2019-02-24T06:14:10.447Z,1.85
2019-02-24T06:16:37.083Z,1.72
2019-02-24T06:19:03.383Z,1.37
2019-02-24T06:21:30.047Z,1.77
2019-02-24T06:23:56.357Z,1.57
2019-02-24T06:26:22.664Z,1.35
2019-02-24T06:28:49.355Z,1.17
2019-02-24T06:31:16.301Z,1.10
2019-02-24T06:33:42.710Z,1.40
2019-02-24T06:36:09.069Z,1.20
2019-02-24T06:38:35.808Z,1.12
2019-02-24T06:41:02.315Z,1.40
2019-02-24T06:43:29.185Z,1.55
2019-02-24T06:45:55.486Z,1.65
2019-02-24T06:48:22.164Z,0.75
2019-02-24T06:50:56.681Z,1.37
2019-02-24T06:53:23.317Z,1.65
2019-02-24T06:55:50.133Z,1.65
2019-02-24T06:58:18.416Z,0.85
2019-02-24T07:00:45.210Z,0.90
2019-02-24T07:03:11.510Z,1.02
2019-02-24T07:05:37.857Z,1.40
2019-02-24T07:08:04.584Z,1.20
2019-02-24T07:10:31.322Z,0.90
2019-02-24T07:12:57.655Z,1.30
2019-02-24T07:15:23.958Z,1.82
2019-02-24T07:17:50.629Z,0.60
2019-02-24T07:20:17.410Z,1.62
2019-02-24T07:22:44.007Z,0.57
2019-02-24T07:25:10.753Z,1.62
2019-02-24T07:27:37.389Z,0.88
2019-02-24T07:30:07.285Z,1.45
2019-02-24T07:32:33.648Z,0.93
2019-02-24T07:35:00.309Z,0.80
2019-02-24T07:37:26.913Z,1.20
2019-02-24T07:39:53.654Z,1.98
2019-02-24T07:42:20.497Z,4.30
2019-02-24T07:44:47.236Z,5.58
2019-02-24T07:47:14.081Z,5.40
2019-02-24T07:49:40.401Z,7.15
2019-02-24T07:52:06.927Z,3.62
2019-02-24T07:54:33.268Z,5.05
2019-02-24T07:56:59.581Z,1.95
2019-02-24T07:59:26.263Z,2.30
2019-02-24T08:01:53.099Z,3.05
2019-02-24T08:04:19.941Z,2.52
2019-02-24T08:06:46.355Z,2.95
2019-02-24T08:09:12.699Z,7.28
2019-02-24T08:11:39.294Z,5.12
2019-02-24T08:14:06.088Z,7.37
2019-02-24T08:16:32.724Z,8.85
2019-02-24T08:18:59.473Z,5.37
2019-02-24T08:21:26.308Z,16.55
2019-02-24T08:23:52.950Z,9.20
2019-02-24T08:26:19.390Z,14.50
2019-02-24T08:28:46.336Z,8.08
2019-02-24T08:31:13.071Z,4.30
2019-02-24T08:33:39.708Z,4.42
2019-02-24T08:36:06.136Z,3.10
2019-02-24T08:38:32.780Z,3.83
2019-02-24T08:40:59.524Z,2.37
2019-02-24T08:43:26.160Z,1.77
2019-02-24T08:45:52.803Z,2.12
2019-02-24T08:48:19.442Z,1.70
2019-02-24T08:50:45.946Z,2.25
2019-02-24T08:53:12.610Z,1.70
2019-02-24T08:55:38.919Z,1.27
2019-02-24T08:58:05.584Z,1.00
2019-02-24T09:00:32.235Z,1.15
2019-02-24T09:02:58.866Z,1.60
2019-02-24T09:05:25.606Z,1.00
2019-02-24T09:07:52.039Z,1.45
2019-02-24T09:10:18.551Z,1.72
2019-02-24T09:12:45.059Z,2.87
2019-02-24T09:15:13.392Z,1.90
2019-02-24T09:17:39.704Z,2.95
2019-02-24T09:20:10.246Z,2.17
2019-02-24T09:22:36.891Z,2.42
2019-02-24T09:25:04.309Z,1.82
2019-02-24T09:27:30.987Z,1.32
2019-02-24T09:29:57.627Z,1.72
2019-02-24T09:32:25.974Z,3.17
2019-02-24T09:34:52.650Z,2.60
2019-02-24T09:37:19.088Z,1.27
2019-02-24T09:39:45.713Z,1.98
2019-02-24T09:42:12.237Z,0.93
2019-02-24T09:44:38.891Z,1.37
2019-02-24T09:47:05.536Z,1.35
2019-02-24T09:49:31.843Z,1.17
2019-02-24T09:51:58.375Z,1.35
2019-02-24T09:54:24.695Z,1.20
2019-02-24T09:56:51.362Z,0.82
2019-02-24T09:59:17.710Z,1.10
2019-02-24T10:01:44.458Z,2.15
2019-02-24T10:04:10.765Z,1.52
2019-02-24T10:06:37.516Z,2.67
2019-02-24T10:09:04.368Z,2.40
2019-02-24T10:11:31.103Z,1.25
2019-02-24T10:13:58.052Z,2.70
2019-02-24T10:16:24.689Z,1.85
2019-02-24T10:18:50.991Z,1.98
2019-02-24T10:21:17.364Z,1.62
2019-02-24T10:23:43.780Z,1.22
2019-02-24T10:26:10.529Z,2.05
2019-02-24T10:28:36.969Z,0.98
2019-02-24T10:31:03.601Z,1.55
2019-02-24T10:33:30.231Z,1.55
2019-02-24T10:35:56.870Z,1.67
2019-02-24T10:38:23.283Z,1.17
2019-02-24T10:40:49.607Z,1.70
2019-02-24T10:43:15.939Z,1.47
2019-02-24T10:45:42.609Z,1.90
2019-02-24T10:48:14.019Z,0.90
2019-02-24T10:50:37.420Z,1.32
2019-02-24T10:53:03.737Z,1.50
2019-02-24T10:55:30.387Z,1.92
2019-02-24T10:57:57.349Z,2.10
2019-02-24T11:00:24.082Z,1.50
2019-02-24T11:02:50.721Z,1.55
2019-02-24T11:05:17.273Z,1.60
2019-02-24T11:07:43.896Z,1.60
2019-02-24T11:10:10.226Z,2.58
2019-02-24T11:12:36.571Z,1.40
2019-02-24T11:15:09.014Z,2.00
2019-02-24T11:17:35.670Z,2.58
2019-02-24T11:20:02.232Z,2.30
2019-02-24T11:22:28.853Z,3.02
2019-02-24T11:24:55.497Z,1.65
2019-02-24T11:27:21.834Z,2.35
2019-02-24T11:29:48.455Z,2.52
2019-02-24T11:32:15.096Z,2.72
2019-02-24T11:34:41.541Z,2.35
2019-02-24T11:37:08.172Z,2.15
2019-02-24T11:39:34.810Z,2.00
2019-02-24T11:42:01.154Z,1.75
2019-02-24T11:44:27.496Z,2.25
2019-02-24T11:46:54.219Z,2.25
2019-02-24T11:49:20.961Z,2.00
2019-02-24T11:51:47.279Z,2.10
2019-02-24T11:54:13.596Z,2.15
2019-02-24T11:56:40.364Z,1.82
2019-02-24T11:59:06.998Z,1.75
2019-02-24T12:01:33.639Z,1.70
2019-02-24T12:04:00.027Z,1.30
2019-02-24T12:06:26.337Z,1.77
2019-02-24T12:08:52.936Z,1.60
2019-02-24T12:11:19.299Z,1.05
2019-02-24T12:13:46.016Z,2.08
2019-02-24T12:16:12.653Z,1.47
2019-02-24T12:18:39.403Z,1.00
2019-02-24T12:21:05.716Z,1.37
2019-02-24T12:23:32.380Z,1.72
2019-02-24T12:25:58.810Z,1.27
2019-02-24T12:28:25.115Z,1.00
2019-02-24T12:30:51.771Z,1.82
2019-02-24T12:33:18.119Z,1.27
2019-02-24T12:35:44.551Z,1.95
2019-02-24T12:38:10.853Z,0.93
2019-02-24T12:40:37.224Z,1.65
2019-02-24T12:43:03.842Z,1.47
2019-02-24T12:45:30.151Z,1.57
2019-02-24T12:47:56.812Z,0.88
2019-02-24T12:50:23.551Z,1.70
2019-02-24T12:52:50.197Z,1.60
2019-02-24T12:55:16.537Z,1.47
2019-02-24T12:57:43.034Z,1.40
2019-02-24T13:00:18.916Z,1.20
2019-02-24T13:02:45.229Z,2.10
2019-02-24T13:05:11.567Z,1.57
2019-02-24T13:07:37.915Z,1.75
2019-02-24T13:10:08.027Z,1.50
2019-02-24T13:12:34.398Z,2.10
2019-02-24T13:15:03.286Z,1.70
2019-02-24T13:17:29.691Z,2.02
2019-02-24T13:19:55.994Z,2.62
2019-02-24T13:22:22.342Z,1.67
2019-02-24T13:24:48.990Z,1.92
2019-02-24T13:27:15.627Z,2.08
2019-02-24T13:29:42.373Z,2.45
2019-02-24T13:32:14.626Z,2.25
2019-02-24T13:34:36.800Z,2.30
2019-02-24T13:37:03.184Z,1.40
2019-02-24T13:39:29.847Z,1.40
2019-02-24T13:41:56.262Z,2.47
2019-02-24T13:44:22.711Z,2.62
2019-02-24T13:46:49.123Z,1.70
2019-02-24T13:49:15.427Z,1.40
2019-02-24T13:51:42.120Z,1.50
2019-02-24T13:54:08.763Z,1.95
2019-02-24T13:56:35.071Z,1.52
2019-02-24T13:59:01.724Z,1.95
2019-02-24T14:01:28.377Z,2.27
2019-02-24T14:03:54.670Z,2.00
2019-02-24T14:06:21.345Z,2.20
2019-02-24T14:08:47.974Z,1.70
2019-02-24T14:11:14.390Z,1.67
2019-02-24T14:13:40.744Z,2.45
2019-02-24T14:16:07.126Z,1.70
2019-02-24T14:18:33.463Z,1.55
2019-02-24T14:21:00.249Z,2.30
2019-02-24T14:23:26.889Z,1.67
2019-02-24T14:25:53.526Z,2.08
2019-02-24T14:28:20.168Z,1.82
2019-02-24T14:30:46.815Z,2.25
2019-02-24T14:33:13.449Z,2.40
2019-02-24T14:35:40.079Z,2.70
2019-02-24T14:38:06.830Z,2.20
2019-02-24T14:40:33.467Z,2.77
2019-02-24T14:43:00.097Z,2.50
2019-02-24T14:45:26.409Z,3.80
2019-02-24T14:47:52.711Z,2.92
2019-02-24T14:50:19.403Z,2.90
2019-02-24T14:52:46.043Z,2.35
2019-02-24T14:55:13.752Z,2.98
2019-02-24T14:57:40.450Z,3.80
2019-02-24T15:00:12.639Z,3.15
2019-02-24T15:02:42.484Z,2.98
2019-02-24T15:05:12.651Z,3.37
2019-02-24T15:07:38.954Z,2.22
2019-02-24T15:10:25.388Z,3.17
2019-02-24T15:12:52.024Z,3.37
2019-02-24T15:15:32.413Z,3.52
2019-02-24T15:17:53.397Z,3.00
2019-02-24T15:20:21.363Z,4.62
2019-02-24T15:22:48.000Z,4.37
2019-02-24T15:25:18.371Z,4.80
2019-02-24T15:27:44.686Z,3.90
2019-02-24T15:30:26.386Z,4.70
2019-02-24T15:32:52.993Z,3.65
2019-02-24T15:35:19.295Z,3.95
2019-02-24T15:37:45.649Z,4.05
2019-02-24T15:40:11.968Z,4.20
2019-02-24T15:42:38.618Z,3.60
2019-02-24T15:45:09.458Z,5.35
2019-02-24T15:47:36.115Z,4.17
2019-02-24T15:50:04.231Z,4.97
2019-02-24T15:52:31.115Z,4.60
2019-02-24T15:54:57.428Z,4.50
2019-02-24T15:57:23.734Z,4.90
2019-02-24T15:59:50.183Z,4.75
2019-02-24T16:02:16.497Z,3.83
2019-02-24T16:04:43.055Z,3.95
2019-02-24T16:07:09.727Z,4.12
2019-02-24T16:09:36.246Z,4.67
2019-02-24T16:12:02.900Z,4.33
2019-02-24T16:14:29.467Z,4.83
2019-02-24T16:16:56.177Z,4.72
2019-02-24T16:19:22.590Z,4.12
2019-02-24T16:21:49.674Z,4.72
2019-02-24T16:24:16.401Z,3.15
2019-02-24T16:26:42.907Z,3.65
2019-02-24T16:29:09.252Z,3.10
2019-02-24T16:31:36.415Z,3.72
2019-02-24T16:34:02.930Z,3.50
2019-02-24T16:36:29.594Z,3.02
2019-02-24T16:38:56.217Z,2.65
2019-02-24T16:41:23.180Z,3.22
2019-02-24T16:43:49.692Z,2.83
2019-02-24T16:46:16.177Z,2.20
2019-02-24T16:48:45.764Z,2.52
2019-02-24T16:51:12.233Z,2.70
2019-02-24T16:53:38.784Z,2.62
2019-02-24T16:56:05.392Z,2.33
2019-02-24T16:58:32.219Z,2.65
2019-02-24T17:00:59.032Z,1.60
2019-02-24T17:03:25.818Z,1.90
2019-02-24T17:05:52.156Z,2.45
2019-02-24T17:08:18.470Z,2.60
2019-02-24T17:10:44.969Z,2.22
2019-02-24T17:13:11.637Z,2.30
2019-02-24T17:15:38.234Z,3.08
2019-02-24T17:18:05.013Z,3.72
2019-02-24T17:20:31.572Z,2.45
2019-02-24T17:22:58.036Z,3.95
2019-02-24T17:25:25.030Z,2.67
2019-02-24T17:27:51.383Z,3.95
2019-02-24T17:30:18.318Z,3.33
2019-02-24T17:32:44.965Z,2.65
2019-02-24T17:35:12.412Z,1.82
2019-02-24T17:37:38.832Z,2.15
2019-02-24T17:40:19.495Z,2.05
2019-02-24T17:42:46.459Z,2.25
2019-02-24T17:45:13.167Z,4.95
2019-02-24T17:47:39.620Z,2.50
2019-02-24T17:50:14.933Z,3.55
2019-02-24T17:52:44.388Z,5.70
2019-02-24T17:55:14.063Z,2.60
2019-02-24T17:57:40.731Z,2.40
2019-02-24T18:00:11.022Z,1.80
2019-02-24T18:02:37.704Z,2.85
2019-02-24T18:05:06.326Z,3.62
2019-02-24T18:07:33.039Z,2.35
2019-02-24T18:09:59.660Z,2.90
2019-02-24T18:12:26.299Z,1.87
2019-02-24T18:14:52.742Z,3.92
2019-02-24T18:17:19.219Z,1.90
2019-02-24T18:19:46.012Z,3.02
2019-02-24T18:22:13.067Z,2.05
2019-02-24T18:24:39.795Z,2.92
2019-02-24T18:27:06.548Z,2.17
2019-02-24T18:29:33.000Z,3.00
2019-02-24T18:31:59.819Z,3.67
2019-02-24T18:34:26.459Z,3.85
2019-02-24T18:36:53.204Z,3.50
2019-02-24T18:39:19.948Z,4.72
2019-02-24T18:41:47.675Z,3.30
2019-02-24T18:44:14.140Z,3.05
2019-02-24T18:46:40.785Z,3.98
2019-02-24T18:49:07.111Z,2.72
2019-02-24T18:51:33.754Z,3.22
2019-02-24T18:54:00.388Z,1.52
2019-02-24T18:56:27.019Z,1.92
2019-02-24T18:58:53.690Z,2.55
2019-02-24T19:01:20.288Z,2.20
2019-02-24T19:03:47.044Z,1.90
2019-02-24T19:06:13.898Z,2.10
2019-02-24T19:08:40.478Z,1.30
2019-02-24T19:11:08.292Z,1.60
2019-02-24T19:13:35.141Z,3.02
2019-02-24T19:16:01.529Z,3.00
2019-02-24T19:18:28.705Z,3.15
2019-02-24T19:20:58.138Z,2.42
2019-02-24T19:23:24.768Z,3.02
2019-02-24T19:25:51.503Z,2.72
2019-02-24T19:28:18.352Z,2.37
2019-02-24T19:30:45.499Z,3.87
2019-02-24T19:33:12.341Z,4.00
2019-02-24T19:35:38.696Z,3.10
2019-02-24T19:38:05.398Z,1.75
2019-02-24T19:40:32.668Z,2.27
2019-02-24T19:42:59.013Z,2.60
2019-02-24T19:45:25.432Z,2.80
2019-02-24T19:47:51.842Z,3.45
2019-02-24T19:50:18.711Z,2.27
2019-02-24T19:52:45.047Z,2.60
2019-02-24T19:55:16.004Z,4.78
2019-02-24T19:57:42.719Z,4.60
2019-02-24T20:00:16.219Z,5.47
2019-02-24T20:02:43.173Z,5.28
2019-02-24T20:05:09.653Z,4.12
2019-02-24T20:07:36.468Z,4.78
2019-02-24T20:10:06.280Z,4.75
2019-02-24T20:12:32.723Z,3.58
2019-02-24T20:14:59.355Z,3.45
2019-02-24T20:17:26.189Z,4.92
2019-02-24T20:19:53.228Z,5.40
2019-02-24T20:22:19.856Z,4.55
2019-02-24T20:24:46.165Z,4.30
2019-02-24T20:27:12.814Z,4.15
2019-02-24T20:29:39.588Z,4.50
2019-02-24T20:32:06.632Z,4.50
2019-02-24T20:34:33.363Z,4.30
2019-02-24T20:36:59.780Z,3.45
2019-02-24T20:39:26.455Z,4.97
2019-02-24T20:41:54.524Z,4.22
2019-02-24T20:44:21.266Z,4.58
2019-02-24T20:46:47.777Z,4.10
2019-02-24T20:49:14.118Z,4.42
2019-02-24T20:51:41.175Z,5.08
2019-02-24T20:54:07.915Z,4.90
2019-02-24T20:56:34.667Z,5.10
2019-02-24T20:59:00.991Z,4.67
2019-02-24T21:01:28.034Z,3.35
2019-02-24T21:03:54.674Z,4.12
2019-02-24T21:06:21.520Z,4.28
2019-02-24T21:08:47.837Z,3.62
2019-02-24T21:11:14.508Z,4.60
2019-02-24T21:13:41.344Z,4.10
2019-02-24T21:16:08.279Z,3.22
2019-02-24T21:18:35.133Z,2.90
2019-02-24T21:21:01.963Z,3.62
2019-02-24T21:23:28.610Z,3.62
2019-02-24T21:25:55.164Z,3.80
2019-02-24T21:28:22.092Z,2.30
2019-02-24T21:30:48.707Z,5.00
2019-02-24T21:33:15.042Z,3.60
2019-02-24T21:35:41.701Z,2.70
2019-02-24T21:38:08.441Z,2.22
2019-02-24T21:40:35.594Z,3.80
2019-02-24T21:43:02.223Z,3.12
2019-02-24T21:45:28.792Z,4.10
2019-02-24T21:47:55.145Z,3.20
2019-02-24T21:50:21.621Z,3.80
2019-02-24T21:52:48.376Z,2.98
2019-02-24T21:55:15.223Z,3.95
2019-02-24T21:57:42.058Z,2.70
2019-02-24T22:00:20.108Z,4.00
2019-02-24T22:02:46.643Z,4.75
2019-02-24T22:05:13.359Z,2.75
2019-02-24T22:07:40.093Z,4.75
2019-02-24T22:10:11.404Z,4.50
2019-02-24T22:12:38.077Z,3.25
2019-02-24T22:15:08.409Z,2.40
2019-02-24T22:17:38.931Z,2.60
2019-02-24T22:20:08.320Z,3.05
2019-02-24T22:22:34.975Z,3.30
2019-02-24T22:25:01.438Z,5.12
2019-02-24T22:27:28.047Z,2.35
2019-02-24T22:29:54.556Z,4.28
2019-02-24T22:32:21.535Z,2.87
2019-02-24T22:34:47.844Z,4.58
2019-02-24T22:37:14.505Z,4.95
2019-02-24T22:39:41.275Z,2.85
2019-02-24T22:42:07.981Z,4.67
2019-02-24T22:44:34.656Z,1.90
2019-02-24T22:47:01.166Z,4.35
2019-02-24T22:49:27.795Z,2.22
2019-02-24T22:51:54.412Z,3.20
2019-02-24T22:54:20.852Z,4.90
2019-02-24T22:56:47.155Z,2.87
2019-02-24T22:59:14.150Z,2.77
2019-02-24T23:01:40.983Z,3.30
2019-02-24T23:04:07.906Z,5.55
2019-02-24T23:06:34.570Z,5.47
2019-02-24T23:09:01.073Z,5.15
2019-02-24T23:11:28.320Z,4.15
2019-02-24T23:13:55.016Z,6.17
2019-02-24T23:16:21.467Z,5.75
2019-02-24T23:18:47.848Z,5.72
2019-02-24T23:21:14.713Z,5.10
2019-02-24T23:23:41.459Z,4.33
2019-02-24T23:26:08.101Z,3.50
2019-02-24T23:28:34.406Z,4.17
2019-02-24T23:31:01.041Z,4.60
2019-02-24T23:33:27.291Z,4.45
2019-02-24T23:35:54.137Z,5.25
2019-02-24T23:38:20.478Z,5.30
2019-02-24T23:40:47.312Z,4.78
2019-02-24T23:43:13.645Z,5.15
2019-02-24T23:45:40.174Z,4.45
2019-02-24T23:48:06.925Z,4.20
2019-02-24T23:50:33.763Z,5.03
2019-02-24T23:53:00.607Z,6.10
2019-02-24T23:55:26.917Z,4.10
2019-02-24T23:57:53.679Z,4.62
